createdAt,value
2017-12-21T00:01:42.222Z,103842.71
2017-12-21T00:04:09.663Z,103846.80
2017-12-21T00:06:37.115Z,103848.43
2017-12-21T00:09:04.375Z,103848.14
2017-12-21T00:11:31.840Z,103848.65
2017-12-21T00:14:00.187Z,103841.55
2017-12-21T00:16:27.635Z,103840.73
2017-12-21T00:18:55.087Z,103835.28
2017-12-21T00:21:22.539Z,103833.63
2017-12-21T00:23:50.002Z,103831.12
2017-12-21T00:26:17.649Z,103821.59
2017-12-21T00:28:45.295Z,103818.56
2017-12-21T00:31:12.747Z,103808.73
2017-12-21T00:33:40.207Z,103810.65
2017-12-21T00:36:07.855Z,103821.26
2017-12-21T00:38:35.308Z,103819.05
2017-12-21T00:41:02.767Z,103812.50
2017-12-21T00:43:30.227Z,103806.75
2017-12-21T00:45:57.683Z,103809.98
2017-12-21T00:48:25.136Z,103826.90
2017-12-21T00:50:52.586Z,103827.96
2017-12-21T00:53:20.234Z,103826.30
2017-12-21T00:55:47.687Z,103828.48
2017-12-21T00:58:15.145Z,103828.73
2017-12-21T01:00:42.620Z,103830.09
2017-12-21T01:03:10.080Z,103831.67
2017-12-21T01:05:37.544Z,103834.95
2017-12-21T01:08:04.994Z,103832.79
2017-12-21T01:10:32.444Z,103831.64
2017-12-21T01:12:59.895Z,103829.22
2017-12-21T01:15:27.347Z,103819.38
2017-12-21T01:17:54.808Z,103824.32
2017-12-21T01:20:22.255Z,103823.17
2017-12-21T01:22:49.727Z,103821.52
2017-12-21T01:25:17.175Z,103819.35
2017-12-21T01:27:44.641Z,103815.27
2017-12-21T01:30:12.091Z,103815.48
2017-12-21T01:32:39.551Z,103826.38
2017-12-21T01:35:07.015Z,103835.32
2017-12-21T01:37:34.499Z,103844.05
2017-12-21T01:40:01.943Z,103837.54
2017-12-21T01:42:29.407Z,103839.11
2017-12-21T01:44:56.883Z,103831.20
2017-12-21T01:47:24.326Z,103829.84
2017-12-21T01:49:51.771Z,103827.92
2017-12-21T01:52:19.233Z,103819.16
2017-12-21T01:54:46.708Z,103806.91
2017-12-21T01:57:14.159Z,103814.27
2017-12-21T01:59:41.611Z,103818.35
2017-12-21T02:02:09.060Z,103821.08
2017-12-21T02:04:36.512Z,103817.21
2017-12-21T02:07:03.987Z,103815.04
2017-12-21T02:09:31.434Z,103816.62
2017-12-21T02:11:58.882Z,103816.11
2017-12-21T02:14:26.339Z,103817.68
2017-12-21T02:16:53.799Z,103819.90
2017-12-21T02:19:21.255Z,103822.33
2017-12-21T02:21:48.719Z,103820.12
2017-12-21T02:24:16.171Z,103827.99
2017-12-21T02:26:43.647Z,103829.05
2017-12-21T02:29:11.105Z,103832.63
2017-12-21T02:31:38.578Z,103824.98
2017-12-21T02:34:06.206Z,103833.70
2017-12-21T02:36:33.659Z,103832.04
2017-12-21T02:39:01.115Z,103823.87
2017-12-21T02:41:28.575Z,103829.53
2017-12-21T02:43:56.208Z,103836.34
2017-12-21T02:46:23.662Z,103833.88
2017-12-21T02:48:51.307Z,103830.59
2017-12-21T02:51:18.949Z,103825.70
2017-12-21T02:53:46.409Z,103825.91
2017-12-21T02:56:14.051Z,103830.30
2017-12-21T02:58:41.494Z,103838.18
2017-12-21T03:01:08.947Z,103841.63
2017-12-21T03:03:36.414Z,103847.08
2017-12-21T03:06:04.067Z,103845.43
2017-12-21T03:08:31.507Z,103839.18
2017-12-21T03:10:58.959Z,103832.07
2017-12-21T03:13:26.416Z,103826.63
2017-12-21T03:15:54.099Z,103824.45
2017-12-21T03:18:21.540Z,103816.80
2017-12-21T03:20:48.990Z,103817.35
2017-12-21T03:23:16.436Z,103818.16
2017-12-21T03:25:43.879Z,103823.31
2017-12-21T03:28:11.339Z,103821.95
2017-12-21T03:30:38.820Z,103824.38
2017-12-21T03:33:06.471Z,103829.52
2017-12-21T03:35:33.931Z,103832.54
2017-12-21T03:38:01.399Z,103828.73
2017-12-21T03:40:28.936Z,103833.31
2017-12-21T03:42:56.339Z,103821.62
2017-12-21T03:45:23.792Z,103827.57
2017-12-21T03:47:51.236Z,103833.87
2017-12-21T03:50:18.692Z,103834.94
2017-12-21T03:52:46.449Z,103831.62
2017-12-21T03:55:13.860Z,103837.37
2017-12-21T03:57:41.356Z,103839.23
2017-12-21T04:00:08.802Z,103841.37
2017-12-21T04:02:36.246Z,103844.09
2017-12-21T04:05:03.916Z,103848.17
2017-12-21T04:07:31.376Z,103848.46
2017-12-21T04:09:58.827Z,103852.26
2017-12-21T04:12:26.275Z,103858.77
2017-12-21T04:14:53.736Z,103860.98
2017-12-21T04:17:21.187Z,103856.59
2017-12-21T04:19:48.645Z,103853.02
2017-12-21T04:22:16.091Z,103847.84
2017-12-21T04:24:43.538Z,103846.22
2017-12-21T04:27:11.009Z,103850.86
2017-12-21T04:29:38.447Z,103841.03
2017-12-21T04:32:05.894Z,103833.92
2017-12-21T04:34:33.348Z,103831.72
2017-12-21T04:37:00.796Z,103833.64
2017-12-21T04:39:28.464Z,103828.70
2017-12-21T04:41:55.912Z,103831.12
2017-12-21T04:44:23.359Z,103830.06
2017-12-21T04:46:50.819Z,103826.23
2017-12-21T04:49:18.271Z,103824.31
2017-12-21T04:51:45.732Z,103821.30
2017-12-21T04:54:13.189Z,103819.13
2017-12-21T04:56:40.854Z,103831.67
2017-12-21T04:59:08.319Z,103837.63
2017-12-21T05:01:35.964Z,103841.71
2017-12-21T05:04:03.423Z,103842.87
2017-12-21T05:06:30.883Z,103843.16
2017-12-21T05:08:58.538Z,103846.65
2017-12-21T05:11:26.003Z,103848.60
2017-12-21T05:13:53.454Z,103845.33
2017-12-21T05:16:20.900Z,103840.48
2017-12-21T05:18:48.351Z,103847.88
2017-12-21T05:21:15.800Z,103842.51
2017-12-21T05:23:43.246Z,103840.67
2017-12-21T05:26:10.700Z,103835.27
2017-12-21T05:28:38.153Z,103829.05
2017-12-21T05:31:05.609Z,103826.66
2017-12-21T05:33:33.046Z,103829.79
2017-12-21T05:36:00.495Z,103835.36
2017-12-21T05:38:27.950Z,103837.05
2017-12-21T05:40:55.399Z,103828.40
2017-12-21T05:43:23.052Z,103829.58
2017-12-21T05:45:50.531Z,103833.19
2017-12-21T05:48:17.991Z,103828.62
2017-12-21T05:50:45.469Z,103828.95
2017-12-21T05:53:12.917Z,103822.80
2017-12-21T05:55:40.379Z,103824.77
2017-12-21T05:58:07.839Z,103831.89
2017-12-21T06:00:35.299Z,103828.40
2017-12-21T06:03:02.747Z,103835.80
2017-12-21T06:05:30.191Z,103838.04
2017-12-21T06:07:57.644Z,103836.75
2017-12-21T06:10:25.108Z,103834.91
2017-12-21T06:12:52.567Z,103833.59
2017-12-21T06:15:20.153Z,103840.48
2017-12-21T06:17:47.713Z,103842.42
2017-12-21T06:20:15.164Z,103843.02
2017-12-21T06:22:42.612Z,103835.93
2017-12-21T06:25:10.094Z,103834.01
2017-12-21T06:27:37.542Z,103834.89
2017-12-21T06:30:04.986Z,103834.68
2017-12-21T06:32:32.787Z,103834.11
2017-12-21T06:35:00.238Z,103828.45
2017-12-21T06:37:27.683Z,103835.26
2017-12-21T06:39:55.146Z,103831.95
2017-12-21T06:42:22.596Z,103824.87
2017-12-21T06:44:50.044Z,103823.76
2017-12-21T06:47:17.498Z,103831.44
2017-12-21T06:49:44.951Z,103821.33
2017-12-21T06:52:12.395Z,103828.70
2017-12-21T06:54:39.851Z,103826.78
2017-12-21T06:57:07.303Z,103816.17
2017-12-21T06:59:34.751Z,103818.38
2017-12-21T07:02:02.203Z,103815.11
2017-12-21T07:04:29.728Z,103824.13
2017-12-21T07:07:05.733Z,103826.30
2017-12-21T07:09:33.200Z,103834.77
2017-12-21T07:12:00.658Z,103848.18
2017-12-21T07:14:28.314Z,103838.34
2017-12-21T07:16:55.767Z,103840.81
2017-12-21T07:19:23.224Z,103840.01
2017-12-21T07:21:50.682Z,103844.09
2017-12-21T07:24:18.127Z,103843.24
2017-12-21T07:26:55.548Z,103852.27
2017-12-21T07:29:22.996Z,103851.71
2017-12-21T07:31:50.667Z,103850.36
2017-12-21T07:34:18.128Z,103852.27
2017-12-21T07:36:45.566Z,103856.58
2017-12-21T07:39:13.016Z,103858.50
2017-12-21T07:41:40.468Z,103856.29
2017-12-21T07:44:07.924Z,103853.94
2017-12-21T07:46:35.402Z,103851.60
2017-12-21T07:49:02.875Z,103847.80
2017-12-21T07:51:30.315Z,103854.91
2017-12-21T07:53:57.769Z,103855.50
2017-12-21T07:56:25.227Z,103854.72
2017-12-21T07:58:52.871Z,103846.28
2017-12-21T08:01:20.324Z,103847.64
2017-12-21T08:03:47.771Z,103843.55
2017-12-21T08:06:15.232Z,103838.09
2017-12-21T08:08:42.686Z,103832.72
2017-12-21T08:11:10.136Z,103839.55
2017-12-21T08:13:37.787Z,103839.07
2017-12-21T08:16:05.239Z,103826.25
2017-12-21T08:18:32.700Z,103829.72
2017-12-21T08:21:00.156Z,103837.46
2017-12-21T08:23:27.623Z,103847.38
2017-12-21T08:25:55.075Z,103845.23
2017-12-21T08:28:22.526Z,103849.05
2017-12-21T08:30:49.984Z,103849.74
2017-12-21T08:33:17.456Z,103840.21
2017-12-21T08:35:45.251Z,103854.71
2017-12-21T08:38:12.704Z,103853.55
2017-12-21T08:40:40.154Z,103854.82
2017-12-21T08:43:07.608Z,103850.59
2017-12-21T08:45:35.059Z,103861.43
2017-12-21T08:48:02.507Z,103863.57
2017-12-21T08:50:30.169Z,103861.94
2017-12-21T08:52:57.628Z,103860.58
2017-12-21T08:55:25.096Z,103864.66
2017-12-21T08:57:52.547Z,103868.24
2017-12-21T09:00:19.996Z,103864.96
2017-12-21T09:02:47.452Z,103866.87
2017-12-21T09:05:14.899Z,103870.20
2017-12-21T09:07:42.359Z,103867.55
2017-12-21T09:10:10.088Z,103869.63
2017-12-21T09:12:37.739Z,103873.44
2017-12-21T09:15:05.183Z,103873.14
2017-12-21T09:17:32.664Z,103879.45
2017-12-21T09:20:00.124Z,103880.64
2017-12-21T09:22:27.587Z,103880.06
2017-12-21T09:24:55.040Z,103878.19
2017-12-21T09:27:22.512Z,103877.90
2017-12-21T09:29:50.171Z,103879.87
2017-12-21T09:32:17.636Z,103888.05
2017-12-21T09:34:45.088Z,103885.29
2017-12-21T09:37:12.534Z,103881.72
2017-12-21T09:39:39.990Z,103876.52
2017-12-21T09:42:07.647Z,103891.77
2017-12-21T09:44:35.313Z,103885.49
2017-12-21T09:47:02.945Z,103869.16
2017-12-21T09:49:30.591Z,103889.23
2017-12-21T09:51:58.065Z,103886.48
2017-12-21T09:54:25.744Z,103885.89
2017-12-21T09:56:53.341Z,103886.70
2017-12-21T09:59:20.960Z,103890.56
2017-12-21T10:01:48.517Z,103886.77
2017-12-21T10:04:15.950Z,103893.52
2017-12-21T10:06:43.405Z,103891.06
2017-12-21T10:09:10.859Z,103882.80
2017-12-21T10:11:38.315Z,103878.68
2017-12-21T10:14:05.763Z,103885.51
2017-12-21T10:16:33.303Z,103880.84
2017-12-21T10:19:00.785Z,103882.20
2017-12-21T10:21:28.219Z,103880.27
2017-12-21T10:23:55.740Z,103881.63
2017-12-21T10:26:23.179Z,103885.99
2017-12-21T10:28:50.631Z,103879.17
2017-12-21T10:31:18.083Z,103884.90
2017-12-21T10:33:45.720Z,103885.12
2017-12-21T10:36:13.171Z,103877.70
2017-12-21T10:38:40.851Z,103873.32
2017-12-21T10:41:08.323Z,103868.94
2017-12-21T10:43:35.780Z,103862.11
2017-12-21T10:46:03.250Z,103859.66
2017-12-21T10:48:30.885Z,103851.70
2017-12-21T10:50:58.401Z,103846.24
2017-12-21T10:53:25.840Z,103844.88
2017-12-21T10:55:53.292Z,103855.01
2017-12-21T10:58:20.770Z,103841.63
2017-12-21T11:00:48.396Z,103844.37
2017-12-21T11:03:15.851Z,103838.05
2017-12-21T11:05:43.311Z,103836.69
2017-12-21T11:08:10.758Z,103837.83
2017-12-21T11:10:38.215Z,103836.18
2017-12-21T11:13:05.676Z,103829.36
2017-12-21T11:15:33.130Z,103830.16
2017-12-21T11:18:00.783Z,103828.02
2017-12-21T11:20:28.237Z,103822.55
2017-12-21T11:22:55.695Z,103821.20
2017-12-21T11:25:23.332Z,103822.85
2017-12-21T11:27:50.794Z,103817.10
2017-12-21T11:30:18.253Z,103814.38
2017-12-21T11:32:45.887Z,103813.30
2017-12-21T11:35:13.346Z,103810.06
2017-12-21T11:37:40.992Z,103804.83
2017-12-21T11:40:08.444Z,103811.42
2017-12-21T11:42:35.905Z,103796.13
2017-12-21T11:45:03.545Z,103798.01
2017-12-21T11:47:31.000Z,103791.74
2017-12-21T11:49:58.464Z,103788.45
2017-12-21T11:52:25.914Z,103787.66
2017-12-21T11:54:53.372Z,103782.41
2017-12-21T11:57:21.229Z,103781.05
2017-12-21T11:59:48.646Z,103786.80
2017-12-21T12:02:16.088Z,103787.35
2017-12-21T12:04:43.545Z,103799.35
2017-12-21T12:07:11.002Z,103789.23
2017-12-21T12:09:38.661Z,103781.62
2017-12-21T12:12:06.111Z,103785.70
2017-12-21T12:14:33.577Z,103778.04
2017-12-21T12:17:01.034Z,103779.41
2017-12-21T12:19:28.479Z,103778.62
2017-12-21T12:21:55.948Z,103774.02
2017-12-21T12:24:23.404Z,103773.55
2017-12-21T12:26:51.072Z,103767.03
2017-12-21T12:29:18.522Z,103766.54
2017-12-21T12:31:45.980Z,103763.30
2017-12-21T12:34:13.431Z,103764.38
2017-12-21T12:36:40.895Z,103762.73
2017-12-21T12:39:08.344Z,103753.74
2017-12-21T12:41:35.792Z,103750.16
2017-12-21T12:44:03.242Z,103752.66
2017-12-21T12:46:31.597Z,103745.29
2017-12-21T12:48:59.259Z,103745.58
2017-12-21T12:51:26.726Z,103751.32
2017-12-21T12:53:54.375Z,103739.90
2017-12-21T12:56:21.837Z,103741.84
2017-12-21T12:58:49.287Z,103738.98
2017-12-21T13:01:16.748Z,103734.60
2017-12-21T13:03:44.204Z,103731.87
2017-12-21T13:06:11.700Z,103730.23
2017-12-21T13:08:39.161Z,103735.75
2017-12-21T13:11:06.800Z,103736.62
2017-12-21T13:13:34.246Z,103727.87
2017-12-21T13:16:01.704Z,103723.77
2017-12-21T13:18:29.204Z,103725.20
2017-12-21T13:20:56.657Z,103729.31
2017-12-21T13:23:24.107Z,103728.81
2017-12-21T13:25:51.556Z,103731.85
2017-12-21T13:28:19.012Z,103736.52
2017-12-21T13:30:46.475Z,103731.35
2017-12-21T13:33:13.930Z,103736.02
2017-12-21T13:35:41.568Z,103731.13
2017-12-21T13:38:09.024Z,103732.56
2017-12-21T13:40:36.538Z,103739.68
2017-12-21T13:43:04.136Z,103741.34
2017-12-21T13:45:31.592Z,103733.95
2017-12-21T13:47:59.048Z,103732.66
2017-12-21T13:50:26.498Z,103735.66
2017-12-21T13:52:53.944Z,103738.62
2017-12-21T13:55:21.604Z,103738.05
2017-12-21T13:57:49.270Z,103736.39
2017-12-21T14:00:16.719Z,103731.72
2017-12-21T14:02:44.359Z,103736.09
2017-12-21T14:08:00.719Z,103736.38
2017-12-21T14:10:28.183Z,103736.09
2017-12-21T14:12:55.835Z,103742.91
2017-12-21T14:15:23.298Z,103742.35
2017-12-21T14:17:50.743Z,103734.14
2017-12-21T14:20:18.186Z,103735.80
2017-12-21T14:22:45.639Z,103731.92
2017-12-21T14:25:13.103Z,103731.92
2017-12-21T14:27:40.587Z,103739.81
2017-12-21T14:30:08.036Z,103743.34
2017-12-21T14:32:35.484Z,103739.17
2017-12-21T14:35:02.940Z,103745.20
2017-12-21T14:37:30.570Z,103744.90
2017-12-21T14:39:58.035Z,103740.82
2017-12-21T14:42:25.480Z,103732.05
2017-12-21T14:44:53.115Z,103732.34
2017-12-21T14:47:20.566Z,103724.93
2017-12-21T14:49:48.030Z,103729.59
2017-12-21T14:52:15.731Z,103734.20
2017-12-21T14:54:43.327Z,103737.48
2017-12-21T14:57:10.784Z,103737.48
2017-12-21T14:59:38.235Z,103740.73
2017-12-21T15:02:05.689Z,103745.68
2017-12-21T15:04:33.139Z,103750.84
2017-12-21T15:07:00.588Z,103753.59
2017-12-21T15:09:28.043Z,103750.00
2017-12-21T15:11:55.820Z,103742.38
2017-12-21T15:14:23.256Z,103741.01
2017-12-21T15:16:50.706Z,103744.25
2017-12-21T15:19:18.171Z,103741.52
2017-12-21T15:21:45.802Z,103737.99
2017-12-21T15:24:13.259Z,103730.88
2017-12-21T15:26:40.718Z,103742.59
2017-12-21T15:29:08.170Z,103739.58
2017-12-21T15:31:35.831Z,103740.95
2017-12-21T15:34:03.279Z,103738.21
2017-12-21T15:36:30.730Z,103736.04
2017-12-21T15:38:58.196Z,103746.96
2017-12-21T15:41:25.648Z,103746.40
2017-12-21T15:43:53.102Z,103755.15
2017-12-21T15:46:20.547Z,103754.59
2017-12-21T15:48:47.995Z,103772.05
2017-12-21T15:51:15.445Z,103772.34
2017-12-21T15:53:42.931Z,103784.10
2017-12-21T15:56:10.380Z,103789.86
2017-12-21T15:58:37.838Z,103789.55
2017-12-21T16:01:05.293Z,103787.12
2017-12-21T16:03:32.748Z,103792.58
2017-12-21T16:06:00.199Z,103787.93
2017-12-21T16:08:27.646Z,103793.39
2017-12-21T16:10:55.107Z,103796.97
2017-12-21T16:13:22.763Z,103798.33
2017-12-21T16:15:50.220Z,103796.11
2017-12-21T16:18:17.680Z,103799.13
2017-12-21T16:20:45.134Z,103810.05
2017-12-21T16:23:12.584Z,103807.32
2017-12-21T16:25:40.047Z,103796.97
2017-12-21T16:28:07.494Z,103800.50
2017-12-21T16:30:34.951Z,103799.13
2017-12-21T16:33:02.411Z,103792.31
2017-12-21T16:35:29.879Z,103799.13
2017-12-21T16:37:57.331Z,103801.87
2017-12-21T16:40:24.781Z,103805.17
2017-12-21T16:42:52.226Z,103807.10
2017-12-21T16:45:19.689Z,103801.92
2017-12-21T16:47:47.348Z,103807.91
2017-12-21T16:50:15.011Z,103813.66
2017-12-21T16:52:42.650Z,103811.23
2017-12-21T16:55:10.107Z,103817.27
2017-12-21T16:57:37.563Z,103822.80
2017-12-21T17:00:05.029Z,103826.11
2017-12-21T17:02:32.731Z,103828.85
2017-12-21T17:05:00.222Z,103832.44
2017-12-21T17:07:27.667Z,103834.89
2017-12-21T17:09:55.368Z,103831.66
2017-12-21T17:12:22.975Z,103825.63
2017-12-21T17:14:50.427Z,103837.41
2017-12-21T17:17:17.884Z,103842.08
2017-12-21T17:19:45.344Z,103830.87
2017-12-21T17:22:12.823Z,103830.02
2017-12-21T17:24:40.295Z,103833.10
2017-12-21T17:27:07.756Z,103830.95
2017-12-21T17:29:35.231Z,103836.13
2017-12-21T17:32:02.683Z,103830.45
2017-12-21T17:34:30.127Z,103817.38
2017-12-21T17:36:57.583Z,103814.37
2017-12-21T17:39:25.252Z,103807.83
2017-12-21T17:41:52.904Z,103802.37
2017-12-21T17:44:20.361Z,103822.63
2017-12-21T17:46:47.817Z,103820.42
2017-12-21T17:49:15.265Z,103813.37
2017-12-21T17:51:42.910Z,103815.02
2017-12-21T17:54:10.376Z,103811.73
2017-12-21T17:56:37.824Z,103817.81
2017-12-21T17:59:05.275Z,103814.00
2017-12-21T18:01:32.729Z,103817.87
2017-12-21T18:04:00.392Z,103828.80
2017-12-21T18:06:27.839Z,103828.80
2017-12-21T18:08:55.315Z,103835.64
2017-12-21T18:11:22.772Z,103831.55
2017-12-21T18:13:50.223Z,103839.22
2017-12-21T18:16:17.871Z,103842.76
2017-12-21T18:18:45.530Z,103844.68
2017-12-21T18:21:12.979Z,103848.49
2017-12-21T18:23:40.435Z,103847.06
2017-12-21T18:26:07.895Z,103852.80
2017-12-21T18:28:35.378Z,103849.97
2017-12-21T18:31:02.835Z,103850.88
2017-12-21T18:33:30.291Z,103854.45
2017-12-21T18:35:57.928Z,103850.94
2017-12-21T18:38:25.387Z,103849.30
2017-12-21T18:40:52.844Z,103850.37
2017-12-21T18:43:20.304Z,103862.44
2017-12-21T18:45:47.760Z,103869.50
2017-12-21T18:48:15.211Z,103876.31
2017-12-21T18:50:42.711Z,103877.06
2017-12-21T18:53:10.125Z,103876.77
2017-12-21T18:55:37.574Z,103877.55
2017-12-21T18:58:05.029Z,103880.00
2017-12-21T19:00:32.706Z,103880.52
2017-12-21T19:03:00.154Z,103879.70
2017-12-21T19:05:27.622Z,103879.42
2017-12-21T19:07:55.071Z,103880.78
2017-12-21T19:10:22.536Z,103871.79
2017-12-21T19:12:50.030Z,103874.75
2017-12-21T19:15:17.511Z,103877.75
2017-12-21T19:17:44.961Z,103873.06
2017-12-21T19:20:12.415Z,103869.76
2017-12-21T19:22:39.856Z,103878.17
2017-12-21T19:25:07.303Z,103874.35
2017-12-21T19:27:34.761Z,103875.65
2017-12-21T19:30:02.221Z,103877.28
2017-12-21T19:32:29.671Z,103876.14
2017-12-21T19:34:57.122Z,103883.76
2017-12-21T19:37:24.591Z,103888.92
2017-12-21T19:39:52.235Z,103890.56
2017-12-21T19:42:19.690Z,103888.61
2017-12-21T19:44:47.147Z,103884.74
2017-12-21T19:47:14.601Z,103881.70
2017-12-21T19:49:42.078Z,103872.37
2017-12-21T19:52:09.519Z,103869.91
2017-12-21T19:54:36.988Z,103873.98
2017-12-21T19:57:04.427Z,103869.59
2017-12-21T19:59:31.884Z,103872.55
2017-12-21T20:01:59.336Z,103873.34
2017-12-21T20:04:26.803Z,103870.87
2017-12-21T20:06:54.461Z,103867.85
2017-12-21T20:09:24.076Z,103867.55
2017-12-21T20:11:51.750Z,103871.07
2017-12-21T20:14:19.200Z,103869.93
2017-12-21T20:16:46.650Z,103871.56
2017-12-21T20:19:14.117Z,103868.24
2017-12-21T20:21:41.568Z,103867.18
2017-12-21T20:24:09.223Z,103865.73
2017-12-21T20:26:36.702Z,103870.91
2017-12-21T20:29:04.159Z,103869.51
2017-12-21T20:31:31.621Z,103876.34
2017-12-21T20:33:59.899Z,103873.91
2017-12-21T20:36:27.300Z,103876.66
2017-12-21T20:38:54.759Z,103880.52
2017-12-21T20:41:22.216Z,103883.77
2017-12-21T20:43:49.669Z,103888.42
2017-12-21T20:46:17.336Z,103896.62
2017-12-21T20:48:44.799Z,103901.02
2017-12-21T20:51:12.255Z,103907.65
2017-12-21T20:53:39.704Z,103906.94
2017-12-21T20:56:07.163Z,103899.52
2017-12-21T20:58:34.623Z,103903.06
2017-12-21T21:01:02.120Z,103905.86
2017-12-21T21:03:29.570Z,103900.62
2017-12-21T21:05:57.027Z,103896.54
2017-12-21T21:08:24.498Z,103893.58
2017-12-21T21:10:51.959Z,103888.63
2017-12-21T21:13:19.855Z,103877.13
2017-12-21T21:15:47.909Z,103877.11
2017-12-21T21:18:15.328Z,103884.45
2017-12-21T21:20:42.813Z,103889.03
2017-12-21T21:23:10.264Z,103899.86
2017-12-21T21:25:37.716Z,103888.91
2017-12-21T21:28:05.191Z,103889.41
2017-12-21T21:30:32.655Z,103887.74
2017-12-21T21:33:00.123Z,103885.79
2017-12-21T21:35:27.631Z,103891.47
2017-12-21T21:37:55.266Z,103889.02
2017-12-21T21:40:22.718Z,103884.63
2017-12-21T21:42:50.183Z,103885.22
2017-12-21T21:45:17.646Z,103885.02
2017-12-21T21:47:45.296Z,103879.55
2017-12-21T21:50:12.760Z,103879.27
2017-12-21T21:52:40.215Z,103880.05
2017-12-21T21:55:07.663Z,103869.05
2017-12-21T21:57:35.119Z,103877.54
2017-12-21T22:00:02.559Z,103879.27
2017-12-21T22:02:30.022Z,103875.98
2017-12-21T22:04:57.459Z,103871.66
2017-12-21T22:07:25.115Z,103877.14
2017-12-21T22:09:52.591Z,103871.86
2017-12-21T22:12:20.189Z,103870.70
2017-12-21T22:14:47.643Z,103868.45
2017-12-21T22:17:15.104Z,103881.22
2017-12-21T22:19:42.561Z,103875.15
2017-12-21T22:22:10.011Z,103872.13
2017-12-21T22:24:37.467Z,103870.48
2017-12-21T22:27:04.923Z,103872.05
2017-12-21T22:29:32.382Z,103871.19
2017-12-21T22:31:59.826Z,103871.67
2017-12-21T22:34:27.288Z,103877.69
2017-12-21T22:36:54.740Z,103881.99
2017-12-21T22:39:22.383Z,103879.53
2017-12-21T22:41:49.843Z,103876.48
2017-12-21T22:44:17.295Z,103878.04
2017-12-21T22:46:44.739Z,103881.83
2017-12-21T22:49:12.199Z,103877.18
2017-12-21T22:51:39.656Z,103876.09
2017-12-21T22:54:07.147Z,103874.91
2017-12-21T22:56:34.604Z,103872.18
2017-12-21T22:59:02.263Z,103871.09
2017-12-21T23:01:29.710Z,103871.09
2017-12-21T23:03:57.163Z,103871.60
2017-12-21T23:06:24.630Z,103875.66
2017-12-21T23:08:52.276Z,103871.30
2017-12-21T23:11:19.732Z,103871.02
2017-12-21T23:13:47.171Z,103864.16
2017-12-21T23:16:14.631Z,103864.38
2017-12-21T23:18:42.131Z,103868.17
2017-12-21T23:21:09.786Z,103862.44
2017-12-21T23:23:37.235Z,103860.26
2017-12-21T23:26:04.688Z,103858.05
2017-12-21T23:28:32.142Z,103858.83
2017-12-21T23:30:59.604Z,103854.45
2017-12-21T23:33:27.056Z,103862.33
2017-12-21T23:35:54.719Z,103846.53
2017-12-21T23:38:22.375Z,103851.13
2017-12-21T23:40:50.007Z,103851.69
2017-12-21T23:43:17.456Z,103847.52
2017-12-21T23:45:44.914Z,103850.24
2017-12-21T23:48:12.363Z,103851.32
2017-12-21T23:50:39.807Z,103847.23
2017-12-21T23:53:07.259Z,103846.68
2017-12-21T23:55:34.711Z,103847.23
2017-12-21T23:58:02.167Z,103843.92
